PWSweather.com
Personal Weather Stations
Station Observations
IPUGLIAA10
Acquaviva Delle FontiIT 70021

Acquaviva Delle FontiIT 70021

Lat: 40.8906215, Lon: 16.8456484

Elevation: 1020

Station Type: Davis Vantage Vue

http://www.meteoacquaviva.it

Latest ConditionsUpdated 3:50:03 PM GMT+01:01 Wednesday, Jun 20, 2018
Currently Today's Max Today's Min Today's Average
Temperature 75.9°F24.4°C 81.4°F27.4°C 67.0°F19.4°C 73.7°F23.2°C
Dew Point 63.7°F17.6°C 66.7°F19.3°C 60.6°F15.9°C 63.3°F17.4°C
Winds Calm Calm 8.1 mph -13.0 kmh - - 2.6 mph 4.2 kmh
Wind Gusts -- 13.8 mph22.2 kmh - -
Humidity 66% 84% 55% 71%
Pressure 30.06 in1017.9 mb 30.09 in1019.0 mb 30.02 in1016.6 mb -
Hour Temp Dew Point Humidity Winds Wind Gusts Pressure Precip Precip Rate Daily Precip Total
03:50 PM 75.9°F24.4°C 63.7°F17.6°C 66% Calm Calm -- 30.06 in1017.9 mb - 0.00 in0.0 mm 0.00 in0.0 mm
03:40 PM 75.6°F24.2°C 63.8°F17.7°C 67% Calm Calm -- 30.06 in1017.9 mb - 0.00 in0.0 mm 0.00 in0.0 mm
03:30 PM 75.9°F24.4°C 64.2°F17.9°C 67% 2.3 mph SW3.7 kmh SW 3.5 mph5.6 kmh 30.07 in1018.3 mb - 0.00 in0.0 mm 0.00 in0.0 mm
03:20 PM 75.7°F24.3°C 64.8°F18.2°C 69% Calm Calm 1.2 mph1.9 kmh 30.06 in1017.9 mb - 0.00 in0.0 mm 0.00 in0.0 mm
03:10 PM 75.8°F24.3°C 64.4°F18.0°C 68% 1.2 mph S1.9 kmh S 3.5 mph5.6 kmh 30.07 in1018.3 mb - 0.00 in0.0 mm 0.00 in0.0 mm
03:00 PM 76.3°F24.6°C 65.0°F18.3°C 68% 1.2 mph S1.9 kmh S 2.3 mph3.7 kmh 30.07 in1018.3 mb - 0.00 in0.0 mm 0.00 in0.0 mm
02:50 PM 75.5°F24.2°C 63.8°F17.7°C 67% Calm Calm -- 30.07 in1018.3 mb - 0.00 in0.0 mm 0.00 in0.0 mm
02:40 PM 74.9°F23.8°C 62.8°F17.1°C 66% Calm Calm -- 30.07 in1018.3 mb - 0.00 in0.0 mm 0.00 in0.0 mm
02:30 PM 74.9°F23.8°C 62.8°F17.1°C 66% Calm Calm -- 30.07 in1018.3 mb - 0.00 in0.0 mm 0.00 in0.0 mm
02:20 PM 74.2°F23.4°C 62.5°F16.9°C 67% Calm Calm -- 30.07 in1018.3 mb - 0.00 in0.0 mm 0.00 in0.0 mm
02:10 PM 73.4°F23.0°C 62.2°F16.8°C 68% 1.2 mph SE1.9 kmh SE 3.5 mph5.6 kmh 30.08 in1018.6 mb - 0.00 in0.0 mm 0.00 in0.0 mm
02:00 PM 73.1°F22.8°C 61.1°F16.2°C 66% 1.2 mph SW1.9 kmh SW 3.5 mph5.6 kmh 30.08 in1018.6 mb - 0.00 in0.0 mm 0.00 in0.0 mm
01:50 PM 74.2°F23.4°C 60.8°F16.0°C 63% 4.6 mph SE7.4 kmh SE 9.2 mph14.8 kmh 30.09 in1019.0 mb - 0.00 in0.0 mm 0.00 in0.0 mm
01:40 PM 78.4°F25.8°C 64.8°F18.2°C 63% 5.8 mph E9.3 kmh E 13.8 mph22.2 kmh 30.08 in1018.6 mb - 0.00 in0.0 mm 0.00 in0.0 mm
01:30 PM 78.7°F25.9°C 65.5°F18.6°C 64% 4.6 mph NE7.4 kmh NE 6.9 mph11.1 kmh 30.07 in1018.3 mb - 0.00 in0.0 mm 0.00 in0.0 mm
01:20 PM 78.9°F26.1°C 65.2°F18.4°C 63% 3.5 mph NNE5.6 kmh NNE 5.8 mph9.3 kmh 30.07 in1018.3 mb - 0.00 in0.0 mm 0.00 in0.0 mm
01:10 PM 79.3°F26.3°C 65.1°F18.4°C 62% 6.9 mph NNE11.1 kmh NNE 10.4 mph16.7 kmh 30.06 in1017.9 mb - 0.00 in0.0 mm 0.00 in0.0 mm
01:00 PM 79.6°F26.4°C 64.5°F18.1°C 60% 6.9 mph NNE11.1 kmh NNE 12.7 mph20.4 kmh 30.05 in1017.6 mb - 0.00 in0.0 mm 0.00 in0.0 mm
12:50 PM 79.7°F26.5°C 64.6°F18.1°C 60% 3.5 mph NNE5.6 kmh NNE 6.9 mph11.1 kmh 30.05 in1017.6 mb - 0.00 in0.0 mm 0.00 in0.0 mm
12:40 PM 80.2°F26.8°C 65.5°F18.6°C 61% 3.5 mph NE5.6 kmh NE 11.5 mph18.5 kmh 30.06 in1017.9 mb - 0.00 in0.0 mm 0.00 in0.0 mm
12:30 PM 80.5°F26.9°C 65.8°F18.8°C 61% 8.1 mph NE13.0 kmh NE 11.5 mph18.5 kmh 30.06 in1017.9 mb - 0.00 in0.0 mm 0.00 in0.0 mm
12:20 PM 81.4°F27.4°C 66.7°F19.3°C 61% 4.6 mph NE7.4 kmh NE 10.4 mph16.7 kmh 30.06 in1017.9 mb - 0.00 in0.0 mm 0.00 in0.0 mm
12:10 PM 81.3°F27.4°C 66.1°F18.9°C 60% 4.6 mph NE7.4 kmh NE 6.9 mph11.1 kmh 30.06 in1017.9 mb - 0.00 in0.0 mm 0.00 in0.0 mm
12:00 PM 81.0°F27.2°C 64.3°F17.9°C 57% 3.5 mph NNE5.6 kmh NNE 6.9 mph11.1 kmh 30.05 in1017.6 mb - 0.00 in0.0 mm 0.00 in0.0 mm
11:50 AM 79.8°F26.6°C 64.2°F17.9°C 59% 6.9 mph NNE11.1 kmh NNE 9.2 mph14.8 kmh 30.06 in1017.9 mb - 0.00 in0.0 mm 0.00 in0.0 mm
11:40 AM 80.4°F26.9°C 62.8°F17.1°C 55% 3.5 mph NE5.6 kmh NE 5.8 mph9.3 kmh 30.06 in1017.9 mb - 0.00 in0.0 mm 0.00 in0.0 mm
11:30 AM 80.1°F26.7°C 62.9°F17.2°C 56% 3.5 mph NE5.6 kmh NE 3.5 mph5.6 kmh 30.06 in1017.9 mb - 0.00 in0.0 mm 0.00 in0.0 mm
11:20 AM 79.0°F26.1°C 63.4°F17.4°C 59% 5.8 mph NNE9.3 kmh NNE 8.1 mph13.0 kmh 30.07 in1018.3 mb - 0.00 in0.0 mm 0.00 in0.0 mm
11:10 AM 78.7°F25.9°C 64.6°F18.1°C 62% 4.6 mph NE7.4 kmh NE 11.5 mph18.5 kmh 30.07 in1018.3 mb - 0.00 in0.0 mm 0.00 in0.0 mm
11:00 AM 78.8°F26.0°C 65.1°F18.4°C 63% 3.5 mph NNE5.6 kmh NNE 10.4 mph16.7 kmh 30.07 in1018.3 mb - 0.00 in0.0 mm 0.00 in0.0 mm
10:50 AM 79.2°F26.2°C 66.0°F18.9°C 64% 5.8 mph NE9.3 kmh NE 11.5 mph18.5 kmh 30.07 in1018.3 mb - 0.00 in0.0 mm 0.00 in0.0 mm
10:40 AM 80.0°F26.7°C 65.3°F18.5°C 61% 6.9 mph NE11.1 kmh NE 9.2 mph14.8 kmh 30.07 in1018.3 mb - 0.00 in0.0 mm 0.00 in0.0 mm
10:30 AM 80.7°F27.1°C 66.0°F18.9°C 61% 4.6 mph NE7.4 kmh NE 8.1 mph13.0 kmh 30.07 in1018.3 mb - 0.00 in0.0 mm 0.00 in0.0 mm
10:20 AM 80.0°F26.7°C 65.8°F18.8°C 62% 4.6 mph NNE7.4 kmh NNE 4.6 mph7.4 kmh 30.08 in1018.6 mb - 0.00 in0.0 mm 0.00 in0.0 mm
10:10 AM 79.7°F26.5°C 65.5°F18.6°C 62% 6.9 mph NNE11.1 kmh NNE 13.8 mph22.2 kmh 30.08 in1018.6 mb - 0.00 in0.0 mm 0.00 in0.0 mm
10:00 AM 79.3°F26.3°C 65.6°F18.7°C 63% 3.5 mph NNE5.6 kmh NNE 5.8 mph9.3 kmh 30.08 in1018.6 mb - 0.00 in0.0 mm 0.00 in0.0 mm
09:50 AM 79.7°F26.5°C 66.4°F19.1°C 64% 2.3 mph NW3.7 kmh NW 5.8 mph9.3 kmh 30.07 in1018.3 mb - 0.00 in0.0 mm 0.00 in0.0 mm
09:40 AM 79.7°F26.5°C 66.0°F18.9°C 63% 4.6 mph NE7.4 kmh NE 10.4 mph16.7 kmh 30.07 in1018.3 mb - 0.00 in0.0 mm 0.00 in0.0 mm
09:30 AM 79.7°F26.5°C 65.5°F18.6°C 62% 3.5 mph N5.6 kmh N 3.5 mph5.6 kmh 30.07 in1018.3 mb - 0.00 in0.0 mm 0.00 in0.0 mm
09:20 AM 78.5°F25.8°C 65.3°F18.5°C 64% 1.2 mph NE1.9 kmh NE 5.8 mph9.3 kmh 30.07 in1018.3 mb - 0.00 in0.0 mm 0.00 in0.0 mm
09:10 AM 77.5°F25.3°C 64.4°F18.0°C 64% 3.5 mph NNE5.6 kmh NNE 5.8 mph9.3 kmh 30.07 in1018.3 mb - 0.00 in0.0 mm 0.00 in0.0 mm
09:00 AM 77.5°F25.3°C 65.2°F18.4°C 66% 3.5 mph NE5.6 kmh NE 6.9 mph11.1 kmh 30.07 in1018.3 mb - 0.00 in0.0 mm 0.00 in0.0 mm
08:50 AM 76.9°F24.9°C 65.5°F18.6°C 68% 3.5 mph NNE5.6 kmh NNE 5.8 mph9.3 kmh 30.07 in1018.3 mb - 0.00 in0.0 mm 0.00 in0.0 mm
08:40 AM 76.5°F24.7°C 65.1°F18.4°C 68% 5.8 mph NE9.3 kmh NE 6.9 mph11.1 kmh 30.07 in1018.3 mb - 0.00 in0.0 mm 0.00 in0.0 mm
08:30 AM 76.3°F24.6°C 65.3°F18.5°C 69% 2.3 mph NE3.7 kmh NE 4.6 mph7.4 kmh 30.07 in1018.3 mb - 0.00 in0.0 mm 0.00 in0.0 mm
08:20 AM 76.3°F24.6°C 65.4°F18.6°C 69% 3.5 mph NNE5.6 kmh NNE 3.5 mph5.6 kmh 30.07 in1018.3 mb - 0.00 in0.0 mm 0.00 in0.0 mm
08:10 AM 76.0°F24.4°C 65.5°F18.6°C 70% 3.5 mph NE5.6 kmh NE 5.8 mph9.3 kmh 30.07 in1018.3 mb - 0.00 in0.0 mm 0.00 in0.0 mm
08:00 AM 75.8°F24.3°C 65.3°F18.5°C 70% 3.5 mph NNE5.6 kmh NNE 4.6 mph7.4 kmh 30.07 in1018.3 mb - 0.00 in0.0 mm 0.00 in0.0 mm
07:50 AM 75.6°F24.2°C 65.1°F18.4°C 70% 3.5 mph NE5.6 kmh NE 6.9 mph11.1 kmh 30.07 in1018.3 mb - 0.00 in0.0 mm 0.00 in0.0 mm
07:40 AM 75.3°F24.1°C 64.8°F18.2°C 70% 5.8 mph NE9.3 kmh NE 11.5 mph18.5 kmh 30.07 in1018.3 mb - 0.00 in0.0 mm 0.00 in0.0 mm
07:30 AM 75.3°F24.1°C 64.8°F18.2°C 70% 4.6 mph NE7.4 kmh NE 5.8 mph9.3 kmh 30.07 in1018.3 mb - 0.00 in0.0 mm 0.00 in0.0 mm
07:20 AM 74.2°F23.4°C 64.2°F17.9°C 71% 4.6 mph NE7.4 kmh NE 8.1 mph13.0 kmh 30.07 in1018.3 mb - 0.00 in0.0 mm 0.00 in0.0 mm
07:10 AM 74.1°F23.4°C 63.7°F17.6°C 70% 2.3 mph NNE3.7 kmh NNE 4.6 mph7.4 kmh 30.07 in1018.3 mb - 0.00 in0.0 mm 0.00 in0.0 mm
07:00 AM 73.2°F22.9°C 63.6°F17.6°C 72% 2.3 mph N3.7 kmh N 3.5 mph5.6 kmh 30.07 in1018.3 mb - 0.00 in0.0 mm 0.00 in0.0 mm
06:50 AM 72.6°F22.6°C 63.1°F17.3°C 72% 2.3 mph N3.7 kmh N 3.5 mph5.6 kmh 30.07 in1018.3 mb - 0.00 in0.0 mm 0.00 in0.0 mm
06:40 AM 72.6°F22.6°C 63.1°F17.3°C 72% 2.3 mph NE3.7 kmh NE 3.5 mph5.6 kmh 30.07 in1018.3 mb - 0.00 in0.0 mm 0.00 in0.0 mm
06:30 AM 72.4°F22.4°C 62.9°F17.2°C 72% 2.3 mph NNE3.7 kmh NNE 4.6 mph7.4 kmh 30.07 in1018.3 mb - 0.00 in0.0 mm 0.00 in0.0 mm
06:20 AM 72.2°F22.3°C 62.7°F17.1°C 72% 2.3 mph W3.7 kmh W 3.5 mph5.6 kmh 30.06 in1017.9 mb - 0.00 in0.0 mm 0.00 in0.0 mm
06:10 AM 72.0°F22.2°C 62.5°F16.9°C 72% 2.3 mph NW3.7 kmh NW 5.8 mph9.3 kmh 30.06 in1017.9 mb - 0.00 in0.0 mm 0.00 in0.0 mm
06:00 AM 71.2°F21.8°C 62.5°F16.9°C 74% 2.3 mph NW3.7 kmh NW 3.5 mph5.6 kmh 30.06 in1017.9 mb - 0.00 in0.0 mm 0.00 in0.0 mm
05:50 AM 70.6°F21.4°C 62.3°F16.8°C 75% 2.3 mph NNW3.7 kmh NNW 3.5 mph5.6 kmh 30.05 in1017.6 mb - 0.00 in0.0 mm 0.00 in0.0 mm
05:40 AM 69.6°F20.9°C 61.7°F16.5°C 76% 1.2 mph W1.9 kmh W 3.5 mph5.6 kmh 30.05 in1017.6 mb - 0.00 in0.0 mm 0.00 in0.0 mm
05:30 AM 69.0°F20.6°C 61.8°F16.6°C 78% Calm Calm 1.2 mph1.9 kmh 30.05 in1017.6 mb - 0.00 in0.0 mm 0.00 in0.0 mm
05:20 AM 68.5°F20.3°C 61.4°F16.3°C 78% Calm Calm 2.3 mph3.7 kmh 30.05 in1017.6 mb - 0.00 in0.0 mm 0.00 in0.0 mm
05:10 AM 68.2°F20.1°C 61.5°F16.4°C 79% Calm Calm 1.2 mph1.9 kmh 30.05 in1017.6 mb - 0.00 in0.0 mm 0.00 in0.0 mm
05:00 AM 68.0°F20.0°C 61.2°F16.2°C 79% 2.3 mph N3.7 kmh N 3.5 mph5.6 kmh 30.04 in1017.3 mb - 0.00 in0.0 mm 0.00 in0.0 mm
04:50 AM 67.8°F19.9°C 61.0°F16.1°C 79% Calm Calm 1.2 mph1.9 kmh 30.04 in1017.3 mb - 0.00 in0.0 mm 0.00 in0.0 mm
04:40 AM 67.5°F19.7°C 61.1°F16.2°C 80% 2.3 mph WSW3.7 kmh WSW 5.8 mph9.3 kmh 30.04 in1017.3 mb - 0.00 in0.0 mm 0.00 in0.0 mm
04:30 AM 67.3°F19.6°C 60.9°F16.1°C 80% 3.5 mph WSW5.6 kmh WSW 3.5 mph5.6 kmh 30.04 in1017.3 mb - 0.00 in0.0 mm 0.00 in0.0 mm
04:20 AM 67.1°F19.5°C 61.1°F16.2°C 81% 2.3 mph WSW3.7 kmh WSW 3.5 mph5.6 kmh 30.04 in1017.3 mb - 0.00 in0.0 mm 0.00 in0.0 mm
04:10 AM 67.0°F19.4°C 60.6°F15.9°C 80% 1.2 mph WSW1.9 kmh WSW 4.6 mph7.4 kmh 30.04 in1017.3 mb - 0.00 in0.0 mm 0.00 in0.0 mm
04:00 AM 67.1°F19.5°C 60.7°F15.9°C 80% 1.2 mph SW1.9 kmh SW 2.3 mph3.7 kmh 30.04 in1017.3 mb - 0.00 in0.0 mm 0.00 in0.0 mm
03:30 AM 67.7°F19.8°C 60.6°F15.9°C 78% Calm Calm -- 30.03 in1016.9 mb - 0.00 in0.0 mm 0.00 in0.0 mm
03:20 AM 67.8°F19.9°C 60.7°F15.9°C 78% 1.2 mph NNE1.9 kmh NNE 1.2 mph1.9 kmh 30.03 in1016.9 mb - 0.00 in0.0 mm 0.00 in0.0 mm
03:10 AM 67.8°F19.9°C 60.7°F15.9°C 78% 1.2 mph WSW1.9 kmh WSW 3.5 mph5.6 kmh 30.02 in1016.6 mb - 0.00 in0.0 mm 0.00 in0.0 mm
03:00 AM 67.7°F19.8°C 60.6°F15.9°C 78% 2.3 mph SW3.7 kmh SW 3.5 mph5.6 kmh 30.02 in1016.6 mb - 0.00 in0.0 mm 0.00 in0.0 mm
02:50 AM 67.7°F19.8°C 60.6°F15.9°C 78% 2.3 mph WSW3.7 kmh WSW 2.3 mph3.7 kmh 30.03 in1016.9 mb - 0.00 in0.0 mm 0.00 in0.0 mm
02:40 AM 67.5°F19.7°C 60.8°F16.0°C 79% 2.3 mph SW3.7 kmh SW 3.5 mph5.6 kmh 30.03 in1016.9 mb - 0.00 in0.0 mm 0.00 in0.0 mm
02:30 AM 67.6°F19.8°C 60.9°F16.1°C 79% 3.5 mph WSW5.6 kmh WSW 3.5 mph5.6 kmh 30.03 in1016.9 mb - 0.00 in0.0 mm 0.00 in0.0 mm
02:20 AM 67.5°F19.7°C 61.1°F16.2°C 80% 2.3 mph WSW3.7 kmh WSW 3.5 mph5.6 kmh 30.03 in1016.9 mb - 0.00 in0.0 mm 0.00 in0.0 mm
02:10 AM 67.5°F19.7°C 61.1°F16.2°C 80% 2.3 mph WSW3.7 kmh WSW 3.5 mph5.6 kmh 30.03 in1016.9 mb - 0.00 in0.0 mm 0.00 in0.0 mm
02:00 AM 67.5°F19.7°C 61.1°F16.2°C 80% 1.2 mph WSW1.9 kmh WSW 2.3 mph3.7 kmh 30.03 in1016.9 mb - 0.00 in0.0 mm 0.00 in0.0 mm
01:50 AM 67.4°F19.7°C 61.0°F16.1°C 80% 2.3 mph SW3.7 kmh SW 4.6 mph7.4 kmh 30.03 in1016.9 mb - 0.00 in0.0 mm 0.00 in0.0 mm
01:40 AM 67.5°F19.7°C 61.5°F16.4°C 81% Calm Calm 1.2 mph1.9 kmh 30.03 in1016.9 mb - 0.00 in0.0 mm 0.00 in0.0 mm
01:30 AM 67.6°F19.8°C 61.5°F16.4°C 81% Calm Calm -- 30.03 in1016.9 mb - 0.00 in0.0 mm 0.00 in0.0 mm
01:20 AM 67.6°F19.8°C 61.6°F16.4°C 81% 2.3 mph WSW3.7 kmh WSW 3.5 mph5.6 kmh 30.03 in1016.9 mb - 0.00 in0.0 mm 0.00 in0.0 mm
01:10 AM 67.7°F19.8°C 61.7°F16.5°C 81% 3.5 mph SW5.6 kmh SW 3.5 mph5.6 kmh 30.03 in1016.9 mb - 0.00 in0.0 mm 0.00 in0.0 mm
01:00 AM 67.9°F19.9°C 61.9°F16.6°C 81% Calm Calm -- 30.03 in1016.9 mb - 0.00 in0.0 mm 0.00 in0.0 mm
12:50 AM 68.1°F20.1°C 62.0°F16.7°C 81% Calm Calm 1.2 mph1.9 kmh 30.03 in1016.9 mb - 0.00 in0.0 mm 0.00 in0.0 mm
12:40 AM 68.3°F20.2°C 62.2°F16.8°C 81% Calm Calm -- 30.03 in1016.9 mb - 0.00 in0.0 mm 0.00 in0.0 mm
12:30 AM 68.4°F20.2°C 62.7°F17.1°C 82% Calm Calm -- 30.03 in1016.9 mb - 0.00 in0.0 mm 0.00 in0.0 mm
12:20 AM 68.3°F20.2°C 62.6°F17.0°C 82% Calm Calm -- 30.03 in1016.9 mb - 0.00 in0.0 mm 0.00 in0.0 mm
12:10 AM 68.3°F20.2°C 62.9°F17.2°C 83% Calm Calm 1.2 mph1.9 kmh 30.03 in1016.9 mb - 0.00 in0.0 mm 0.00 in0.0 mm
12:00 AM 68.1°F20.1°C 63.1°F17.3°C 84% Calm Calm -- 30.03 in1016.9 mb - 0.00 in0.0 mm 0.00 in0.0 mm